Kennydale, Washington
Current Conditions -  °F | °C
As of 4:53 AM on Saturday 25 Oct 2014 (Local Time) from KRNT Reporting Station
Scattered Clouds Scattered Clouds  
Wind Chill: 11°   Ceiling: Unl
Heat Index: 11°   Visibility: 10mi
Dew Point: 10°   Wind: 3mph
Humidity: 96%   Direction: NA
Pressure: 29.51"   Gusts: NA
Location:  47.5152°N, 122.184°W
Report Text: KRNT 251153Z AUTO VRB03KT 10SM SCT007 11/10 A2951 RMK AO2 SLP999 60001 70016 T01060100 10111 20100 58034
Loading
Personal Weather Stations






























Interactive Weather Map
Tropical Storm Tracking
New forecast layout! Learn more

10-Day Weather Forecast

Advertisements
Track Severe Weather on mobile